Airport ID:KRTS
Update Time (UTC):26/09/2022 16:16
Wind Speed (Knots):2
Wind Direction (Magnetic):180
Temperature (°C):17
Dew Point (°C):1
Humidity (%):33
Altimeter (inHg):30.25
Density Altitude (Feet):6200
Visibility:10+
Clouds (Hundreds of feet):CLR
Present Weather:
METAR:METAR KRTS 261615Z AUTO 00000KT 10SM CLR 17/01 A3025 RMK AO2

The data displayed is for advisory purposes only and is not to be used for flight planning or operations.